Open Full Screen Window  High Contrast Mode
Wind Gusting 00 knots
07
December 02, 2016 4:10 PM CST
Weather Information
Wind Direction
  310 °
Wind Speed
  07 kt (8 mph)
Wind Gust
  00 kt (0 mph)
Altimeter
30.28 in
Visibility
10 SM
Temperature
-03° C
27° F
Dewpoint
-04° C
25° F
Humidity
93%
1hr Rain Fall
00.00 in.
24hr Rain Fall
00.00 in.
Sky Condition
Overcast @ 2,800 ft
MVFR

METAR KMDS 022210Z AUTO 31007KT 10SM OVC028 M03/M04 A3028 RMK AO2

*Background is not an actual portrayal of the airport.